EZS1590 EDDB-LSGG
Flight info
| Callsign | EZS1590 |
|---|---|
| Flight time | 1h 24m |
| Altitude | 37000 |
| Route | KISUC1Q KISUC Z117 ORTAG DCT BAMKI/N0439F360 DCT IBAGA DCT DKB DCT ETAGO N869 TEDGO/N0444F370 N869 NATOR DCT LUTIX DCT BENOT |
| Aircraft | A320/M-SDE2E3FGHIJ1RWXYZ/LB1 |
Departure
| Time | 2026-05-05 21:28 |
|---|---|
| Airport | Berlin Brandenburg Airport (EDDB) |
Arrival
| Time | 2026-05-05 22:53 |
|---|---|
| Airport | Geneva International Airport (LSGG) |
| Time | Latitude | Longitude | Altitude | Speed | Heading |
|---|---|---|---|---|---|
| 2026-05-05 21:02 | 52.36285 | 13.50660 | 155 ft | 0 kts | 69° |
| 2026-05-05 21:15 | 52.36283 | 13.50652 | 154 ft | 4 kts | 69° |
| 2026-05-05 21:16 | 52.36274 | 13.50611 | 154 ft | 4 kts | 69° |
| 2026-05-05 21:16 | 52.36266 | 13.50569 | 154 ft | 4 kts | 81° |
| 2026-05-05 21:16 | 52.36265 | 13.50528 | 154 ft | 4 kts | 114° |
| 2026-05-05 21:16 | 52.36276 | 13.50506 | 154 ft | 0 kts | 159° |
| 2026-05-05 21:20 | 52.36242 | 13.50528 | 154 ft | 9 kts | 158° |
| 2026-05-05 21:20 | 52.36162 | 13.50578 | 154 ft | 16 kts | 158° |
| 2026-05-05 21:20 | 52.36036 | 13.50659 | 154 ft | 23 kts | 159° |
| 2026-05-05 21:21 | 52.35902 | 13.50744 | 154 ft | 15 kts | 159° |
| 2026-05-05 21:21 | 52.35809 | 13.50773 | 154 ft | 13 kts | 210° |
| 2026-05-05 21:21 | 52.35776 | 13.50654 | 154 ft | 11 kts | 255° |
| 2026-05-05 21:21 | 52.35753 | 13.50544 | 154 ft | 9 kts | 248° |
| 2026-05-05 21:22 | 52.35731 | 13.50451 | 154 ft | 9 kts | 248° |
| 2026-05-05 21:22 | 52.35705 | 13.50331 | 154 ft | 14 kts | 249° |
| 2026-05-05 21:22 | 52.35667 | 13.50162 | 154 ft | 18 kts | 253° |
| 2026-05-05 21:22 | 52.35612 | 13.49952 | 154 ft | 22 kts | 248° |
| 2026-05-05 21:23 | 52.35554 | 13.49702 | 154 ft | 24 kts | 249° |
| 2026-05-05 21:23 | 52.35492 | 13.49439 | 154 ft | 25 kts | 249° |
| 2026-05-05 21:23 | 52.35427 | 13.49167 | 154 ft | 26 kts | 248° |
| 2026-05-05 21:23 | 52.35360 | 13.48881 | 154 ft | 27 kts | 249° |
| 2026-05-05 21:24 | 52.35289 | 13.48584 | 154 ft | 29 kts | 249° |
| 2026-05-05 21:24 | 52.35216 | 13.48277 | 154 ft | 30 kts | 249° |
| 2026-05-05 21:24 | 52.35142 | 13.47968 | 154 ft | 26 kts | 249° |
| 2026-05-05 21:24 | 52.35076 | 13.47683 | 154 ft | 27 kts | 248° |
| 2026-05-05 21:25 | 52.35004 | 13.47386 | 154 ft | 28 kts | 249° |
| 2026-05-05 21:25 | 52.34932 | 13.47082 | 154 ft | 29 kts | 248° |
| 2026-05-05 21:25 | 52.34870 | 13.46823 | 154 ft | 21 kts | 249° |
| 2026-05-05 21:25 | 52.34809 | 13.46713 | 154 ft | 12 kts | 180° |
| 2026-05-05 21:26 | 52.34736 | 13.46760 | 154 ft | 10 kts | 160° |
| 2026-05-05 21:26 | 52.34672 | 13.46797 | 154 ft | 9 kts | 161° |
| 2026-05-05 21:26 | 52.34617 | 13.46831 | 154 ft | 8 kts | 156° |
| 2026-05-05 21:26 | 52.34577 | 13.46878 | 154 ft | 7 kts | 129° |
| 2026-05-05 21:27 | 52.34570 | 13.46959 | 154 ft | 6 kts | 74° |
| 2026-05-05 21:27 | 52.34573 | 13.46971 | 154 ft | 1 kts | 68° |
| 2026-05-05 21:27 | 52.34638 | 13.47245 | 154 ft | 61 kts | 68° |
| 2026-05-05 21:27 | 52.34866 | 13.48207 | 154 ft | 120 kts | 69° |
| 2026-05-05 21:28 | 52.35231 | 13.49728 | 161 ft | 165 kts | 66° |
| 2026-05-05 21:28 | 52.35611 | 13.51588 | 537 ft | 180 kts | 81° |
| 2026-05-05 21:28 | 52.35387 | 13.53650 | 1096 ft | 194 kts | 118° |
| 2026-05-05 21:28 | 52.34536 | 13.55352 | 1840 ft | 196 kts | 137° |
| 2026-05-05 21:29 | 52.33225 | 13.56030 | 2440 ft | 208 kts | 182° |
| 2026-05-05 21:29 | 52.31849 | 13.55128 | 2830 ft | 226 kts | 214° |
| 2026-05-05 21:29 | 52.30554 | 13.53502 | 3158 ft | 248 kts | 218° |
| 2026-05-05 21:29 | 52.29151 | 13.51647 | 3624 ft | 267 kts | 219° |
| 2026-05-05 21:30 | 52.27710 | 13.49690 | 4447 ft | 272 kts | 224° |
| 2026-05-05 21:30 | 52.26638 | 13.47132 | 5334 ft | 275 kts | 248° |
| 2026-05-05 21:30 | 52.26285 | 13.44108 | 6312 ft | 276 kts | 268° |
| 2026-05-05 21:30 | 52.26267 | 13.40937 | 7066 ft | 281 kts | 269° |
| 2026-05-05 21:31 | 52.26271 | 13.37735 | 7900 ft | 284 kts | 270° |
| 2026-05-05 21:31 | 52.26281 | 13.34501 | 8769 ft | 286 kts | 269° |
| 2026-05-05 21:31 | 52.26287 | 13.31240 | 9624 ft | 288 kts | 268° |
| 2026-05-05 21:31 | 52.26291 | 13.27958 | 10396 ft | 291 kts | 269° |
| 2026-05-05 21:32 | 52.26289 | 13.25777 | 10905 ft | 292 kts | 267° |
| 2026-05-05 21:32 | 52.26026 | 13.22485 | 11644 ft | 293 kts | 253° |
| 2026-05-05 21:32 | 52.25273 | 13.19338 | 12025 ft | 309 kts | 239° |
| 2026-05-05 21:32 | 52.23739 | 13.15189 | 12448 ft | 331 kts | 237° |
| 2026-05-05 21:33 | 52.22523 | 13.11957 | 13109 ft | 336 kts | 237° |
| 2026-05-05 21:33 | 52.21296 | 13.08693 | 13811 ft | 339 kts | 237° |
| 2026-05-05 21:33 | 52.20057 | 13.05398 | 14442 ft | 342 kts | 237° |
| 2026-05-05 21:33 | 52.18813 | 13.02087 | 15095 ft | 344 kts | 237° |
| 2026-05-05 21:34 | 52.17986 | 12.99880 | 15518 ft | 345 kts | 237° |
| 2026-05-05 21:34 | 52.16791 | 12.96474 | 16155 ft | 349 kts | 243° |
| 2026-05-05 21:34 | 52.15967 | 12.92675 | 16790 ft | 354 kts | 254° |
| 2026-05-05 21:34 | 52.15429 | 12.88794 | 17427 ft | 357 kts | 255° |
| 2026-05-05 21:35 | 52.14884 | 12.84844 | 18031 ft | 360 kts | 255° |
| 2026-05-05 21:35 | 52.14330 | 12.80857 | 18561 ft | 363 kts | 255° |
| 2026-05-05 21:35 | 52.13764 | 12.76837 | 19093 ft | 365 kts | 255° |
| 2026-05-05 21:35 | 52.13190 | 12.72794 | 19633 ft | 367 kts | 255° |
| 2026-05-05 21:36 | 52.12611 | 12.68740 | 20151 ft | 370 kts | 255° |
| 2026-05-05 21:36 | 52.12027 | 12.64654 | 20680 ft | 372 kts | 255° |
| 2026-05-05 21:36 | 52.11439 | 12.60548 | 21185 ft | 374 kts | 255° |
| 2026-05-05 21:36 | 52.10842 | 12.56401 | 21683 ft | 377 kts | 255° |
| 2026-05-05 21:37 | 52.10243 | 12.52242 | 22173 ft | 379 kts | 255° |
| 2026-05-05 21:37 | 52.09638 | 12.48055 | 22619 ft | 382 kts | 255° |
| 2026-05-05 21:37 | 52.09026 | 12.43838 | 23065 ft | 386 kts | 255° |
| 2026-05-05 21:37 | 52.08409 | 12.39578 | 23511 ft | 388 kts | 255° |
| 2026-05-05 21:38 | 52.07745 | 12.35304 | 23907 ft | 389 kts | 250° |
| 2026-05-05 21:38 | 52.06704 | 12.31254 | 24292 ft | 389 kts | 240° |
| 2026-05-05 21:38 | 52.05232 | 12.27568 | 24676 ft | 389 kts | 231° |
| 2026-05-05 21:38 | 52.03602 | 12.24047 | 25063 ft | 391 kts | 231° |
| 2026-05-05 21:39 | 52.01968 | 12.20496 | 25448 ft | 393 kts | 231° |
| 2026-05-05 21:39 | 52.00334 | 12.16933 | 25835 ft | 394 kts | 231° |
| 2026-05-05 21:39 | 51.98699 | 12.13359 | 26214 ft | 396 kts | 231° |
| 2026-05-05 21:39 | 51.97053 | 12.09768 | 26589 ft | 398 kts | 231° |
| 2026-05-05 21:40 | 51.95414 | 12.06208 | 26953 ft | 399 kts | 231° |
| 2026-05-05 21:40 | 51.93745 | 12.02597 | 27317 ft | 401 kts | 231° |
| 2026-05-05 21:40 | 51.92067 | 11.98976 | 27675 ft | 403 kts | 231° |
| 2026-05-05 21:40 | 51.90384 | 11.95346 | 27995 ft | 405 kts | 230° |
| 2026-05-05 21:41 | 51.88682 | 11.91683 | 28282 ft | 409 kts | 230° |
| 2026-05-05 21:41 | 51.86967 | 11.87991 | 28610 ft | 411 kts | 230° |
| 2026-05-05 21:41 | 51.85250 | 11.84292 | 28944 ft | 413 kts | 230° |
| 2026-05-05 21:41 | 51.83515 | 11.80573 | 29289 ft | 415 kts | 230° |
| 2026-05-05 21:42 | 51.81763 | 11.76858 | 29615 ft | 416 kts | 230° |
| 2026-05-05 21:42 | 51.79998 | 11.73140 | 29929 ft | 418 kts | 230° |
| 2026-05-05 21:42 | 51.78223 | 11.69413 | 30200 ft | 420 kts | 230° |
| 2026-05-05 21:42 | 51.76438 | 11.65670 | 30463 ft | 421 kts | 230° |
| 2026-05-05 21:43 | 51.74650 | 11.61923 | 30726 ft | 423 kts | 229° |
| 2026-05-05 21:43 | 51.72853 | 11.58164 | 30977 ft | 424 kts | 229° |
| 2026-05-05 21:43 | 51.71052 | 11.54392 | 31289 ft | 424 kts | 229° |
| 2026-05-05 21:43 | 51.69271 | 11.50664 | 31488 ft | 427 kts | 229° |
| 2026-05-05 21:44 | 51.67428 | 11.46815 | 31752 ft | 428 kts | 229° |
| 2026-05-05 21:44 | 51.65609 | 11.43023 | 32074 ft | 427 kts | 228° |
| 2026-05-05 21:44 | 51.63792 | 11.39243 | 32434 ft | 426 kts | 228° |
| 2026-05-05 21:44 | 51.61983 | 11.35485 | 32785 ft | 425 kts | 228° |
| 2026-05-05 21:45 | 51.60197 | 11.31776 | 33145 ft | 424 kts | 228° |
| 2026-05-05 21:45 | 51.58397 | 11.28036 | 33503 ft | 423 kts | 228° |
| 2026-05-05 21:45 | 51.56597 | 11.24304 | 33868 ft | 421 kts | 228° |
| 2026-05-05 21:45 | 51.54799 | 11.20589 | 34165 ft | 420 kts | 228° |
| 2026-05-05 21:46 | 51.53006 | 11.16903 | 34457 ft | 419 kts | 227° |
| 2026-05-05 21:46 | 51.51024 | 11.13524 | 34740 ft | 413 kts | 217° |
| 2026-05-05 21:46 | 51.48714 | 11.10823 | 34935 ft | 411 kts | 207° |
| 2026-05-05 21:46 | 51.46146 | 11.08872 | 35132 ft | 408 kts | 197° |
| 2026-05-05 21:47 | 51.43406 | 11.07723 | 35344 ft | 406 kts | 187° |
| 2026-05-05 21:47 | 51.40600 | 11.07334 | 35543 ft | 405 kts | 182° |
| 2026-05-05 21:47 | 51.37782 | 11.07123 | 35727 ft | 405 kts | 182° |
| 2026-05-05 21:47 | 51.34964 | 11.06908 | 35947 ft | 405 kts | 183° |
| 2026-05-05 21:48 | 51.32148 | 11.06696 | 36152 ft | 406 kts | 183° |
| 2026-05-05 21:48 | 51.29326 | 11.06472 | 36355 ft | 406 kts | 183° |
| 2026-05-05 21:48 | 51.26508 | 11.06248 | 36553 ft | 406 kts | 183° |
| 2026-05-05 21:48 | 51.23694 | 11.06027 | 36748 ft | 406 kts | 183° |
| 2026-05-05 21:49 | 51.18059 | 11.05580 | 36809 ft | 404 kts | 183° |
| 2026-05-05 21:49 | 51.12451 | 11.05149 | 36810 ft | 403 kts | 183° |
| 2026-05-05 21:50 | 51.06844 | 11.04711 | 36810 ft | 403 kts | 183° |
| 2026-05-05 21:50 | 51.01231 | 11.04269 | 36811 ft | 405 kts | 183° |
| 2026-05-05 21:51 | 50.95641 | 11.03843 | 36810 ft | 405 kts | 183° |
| 2026-05-05 21:51 | 50.90011 | 11.03420 | 36809 ft | 405 kts | 183° |
| 2026-05-05 21:52 | 50.81559 | 11.02777 | 36812 ft | 406 kts | 183° |
| 2026-05-05 21:53 | 50.75912 | 11.02335 | 36798 ft | 406 kts | 183° |
| 2026-05-05 21:53 | 50.70307 | 11.01298 | 36796 ft | 407 kts | 195° |
| 2026-05-05 21:54 | 50.64886 | 10.98688 | 36799 ft | 408 kts | 196° |
| 2026-05-05 21:54 | 50.59461 | 10.96078 | 36803 ft | 408 kts | 196° |
| 2026-05-05 21:55 | 50.54026 | 10.93464 | 36809 ft | 409 kts | 196° |
| 2026-05-05 21:55 | 50.48584 | 10.90858 | 36812 ft | 409 kts | 196° |
| 2026-05-05 21:56 | 50.43149 | 10.88269 | 36815 ft | 408 kts | 196° |
| 2026-05-05 21:56 | 50.37741 | 10.85698 | 36816 ft | 408 kts | 196° |
| 2026-05-05 21:57 | 50.32257 | 10.83091 | 36805 ft | 409 kts | 196° |
| 2026-05-05 21:57 | 50.26838 | 10.80520 | 36805 ft | 410 kts | 196° |
| 2026-05-05 21:58 | 50.21365 | 10.77935 | 36807 ft | 411 kts | 196° |
| 2026-05-05 21:58 | 50.15893 | 10.75349 | 36813 ft | 411 kts | 196° |
| 2026-05-05 21:59 | 50.10406 | 10.72767 | 36819 ft | 412 kts | 196° |
| 2026-05-05 21:59 | 50.04928 | 10.70197 | 36819 ft | 411 kts | 196° |
| 2026-05-05 22:00 | 49.99437 | 10.67630 | 36819 ft | 412 kts | 196° |
| 2026-05-05 22:00 | 49.93958 | 10.65069 | 36823 ft | 412 kts | 196° |
| 2026-05-05 22:01 | 49.88471 | 10.62511 | 36836 ft | 412 kts | 196° |
| 2026-05-05 22:01 | 49.82982 | 10.59959 | 36840 ft | 412 kts | 196° |
| 2026-05-05 22:02 | 49.77495 | 10.57418 | 36841 ft | 412 kts | 196° |
| 2026-05-05 22:02 | 49.72019 | 10.54814 | 36844 ft | 412 kts | 198° |
| 2026-05-05 22:03 | 49.66613 | 10.51898 | 36851 ft | 411 kts | 200° |
| 2026-05-05 22:03 | 49.61236 | 10.48895 | 36855 ft | 411 kts | 200° |
| 2026-05-05 22:04 | 49.55888 | 10.45972 | 36856 ft | 410 kts | 199° |
| 2026-05-05 22:04 | 49.50497 | 10.43082 | 36852 ft | 410 kts | 199° |
| 2026-05-05 22:05 | 49.45116 | 10.40217 | 36848 ft | 409 kts | 199° |
| 2026-05-05 22:05 | 49.39733 | 10.37353 | 36846 ft | 409 kts | 199° |
| 2026-05-05 22:06 | 49.34350 | 10.34476 | 36849 ft | 410 kts | 199° |
| 2026-05-05 22:06 | 49.28965 | 10.31611 | 36856 ft | 410 kts | 199° |
| 2026-05-05 22:07 | 49.23578 | 10.28764 | 36866 ft | 409 kts | 199° |
| 2026-05-05 22:07 | 49.18205 | 10.25906 | 36880 ft | 409 kts | 201° |
| 2026-05-05 22:08 | 49.13350 | 10.21498 | 36878 ft | 408 kts | 221° |
| 2026-05-05 22:08 | 49.09609 | 10.14952 | 36876 ft | 410 kts | 230° |
| 2026-05-05 22:09 | 49.06025 | 10.08168 | 36862 ft | 411 kts | 229° |
| 2026-05-05 22:09 | 49.02428 | 10.01409 | 36867 ft | 411 kts | 229° |
| 2026-05-05 22:10 | 48.98835 | 9.94642 | 36867 ft | 411 kts | 229° |
| 2026-05-05 22:10 | 48.95263 | 9.87925 | 36871 ft | 411 kts | 229° |
| 2026-05-05 22:11 | 48.91668 | 9.81179 | 36875 ft | 411 kts | 229° |
| 2026-05-05 22:11 | 48.88058 | 9.74435 | 36874 ft | 411 kts | 229° |
| 2026-05-05 22:12 | 48.84458 | 9.67722 | 36881 ft | 410 kts | 229° |
| 2026-05-05 22:12 | 48.80850 | 9.61005 | 36893 ft | 410 kts | 229° |
| 2026-05-05 22:13 | 48.77229 | 9.54295 | 36886 ft | 411 kts | 229° |
| 2026-05-05 22:13 | 48.73602 | 9.47597 | 36882 ft | 411 kts | 229° |
| 2026-05-05 22:14 | 48.69973 | 9.40894 | 36879 ft | 412 kts | 229° |
| 2026-05-05 22:14 | 48.66332 | 9.34189 | 36874 ft | 412 kts | 229° |
| 2026-05-05 22:15 | 48.62720 | 9.27555 | 36873 ft | 411 kts | 229° |
| 2026-05-05 22:15 | 48.59212 | 9.20721 | 36876 ft | 412 kts | 232° |
| 2026-05-05 22:16 | 48.55935 | 9.13613 | 36876 ft | 412 kts | 234° |
| 2026-05-05 22:16 | 48.52683 | 9.06505 | 36884 ft | 412 kts | 233° |
| 2026-05-05 22:17 | 48.49360 | 8.99437 | 36884 ft | 413 kts | 233° |
| 2026-05-05 22:17 | 48.46011 | 8.92410 | 36884 ft | 413 kts | 233° |
| 2026-05-05 22:18 | 48.42656 | 8.85396 | 36886 ft | 413 kts | 233° |
| 2026-05-05 22:18 | 48.39297 | 8.78372 | 36886 ft | 413 kts | 233° |
| 2026-05-05 22:19 | 48.35939 | 8.71360 | 36884 ft | 413 kts | 233° |
| 2026-05-05 22:19 | 48.32571 | 8.64355 | 36882 ft | 413 kts | 233° |
| 2026-05-05 22:20 | 48.29228 | 8.57413 | 36899 ft | 413 kts | 233° |
| 2026-05-05 22:20 | 48.25863 | 8.50419 | 36890 ft | 413 kts | 233° |
| 2026-05-05 22:21 | 48.22495 | 8.43443 | 36890 ft | 414 kts | 232° |
| 2026-05-05 22:21 | 48.19107 | 8.36462 | 36889 ft | 414 kts | 232° |
| 2026-05-05 22:22 | 48.15122 | 8.30340 | 36889 ft | 411 kts | 214° |
| 2026-05-05 22:22 | 48.10319 | 8.25686 | 36889 ft | 411 kts | 213° |
| 2026-05-05 22:23 | 48.05526 | 8.21070 | 36895 ft | 410 kts | 213° |
| 2026-05-05 22:23 | 48.00718 | 8.16446 | 36898 ft | 410 kts | 213° |
| 2026-05-05 22:24 | 47.95922 | 8.11831 | 36898 ft | 410 kts | 213° |
| 2026-05-05 22:24 | 47.91130 | 8.07235 | 36901 ft | 409 kts | 213° |
| 2026-05-05 22:25 | 47.86340 | 8.02661 | 36907 ft | 409 kts | 213° |
| 2026-05-05 22:25 | 47.81553 | 7.98096 | 36685 ft | 409 kts | 213° |
| 2026-05-05 22:25 | 47.79158 | 7.95815 | 36424 ft | 408 kts | 213° |
| 2026-05-05 22:26 | 47.76793 | 7.93571 | 36167 ft | 408 kts | 213° |
| 2026-05-05 22:26 | 47.74404 | 7.91307 | 35861 ft | 406 kts | 213° |
| 2026-05-05 22:26 | 47.72038 | 7.89061 | 35398 ft | 402 kts | 213° |
| 2026-05-05 22:26 | 47.69696 | 7.86837 | 34922 ft | 398 kts | 213° |
| 2026-05-05 22:27 | 47.67367 | 7.84628 | 34442 ft | 395 kts | 213° |
| 2026-05-05 22:27 | 47.65060 | 7.82446 | 33966 ft | 392 kts | 213° |
| 2026-05-05 22:27 | 47.62764 | 7.80278 | 33444 ft | 389 kts | 213° |
| 2026-05-05 22:27 | 47.60493 | 7.78138 | 32982 ft | 384 kts | 213° |
| 2026-05-05 22:28 | 47.58254 | 7.76031 | 32524 ft | 380 kts | 213° |
| 2026-05-05 22:28 | 47.56033 | 7.73942 | 32076 ft | 376 kts | 213° |
| 2026-05-05 22:28 | 47.53844 | 7.71884 | 31627 ft | 372 kts | 213° |
| 2026-05-05 22:28 | 47.51676 | 7.69843 | 31180 ft | 367 kts | 213° |
| 2026-05-05 22:29 | 47.50251 | 7.68504 | 30906 ft | 364 kts | 213° |
| 2026-05-05 22:29 | 47.48126 | 7.66510 | 30489 ft | 360 kts | 213° |
| 2026-05-05 22:29 | 47.46023 | 7.64536 | 30076 ft | 356 kts | 213° |
| 2026-05-05 22:29 | 47.43937 | 7.62579 | 29625 ft | 352 kts | 213° |
| 2026-05-05 22:30 | 47.41888 | 7.60659 | 29236 ft | 346 kts | 213° |
| 2026-05-05 22:30 | 47.39867 | 7.58770 | 28847 ft | 341 kts | 213° |
| 2026-05-05 22:30 | 47.37883 | 7.56921 | 28482 ft | 335 kts | 213° |
| 2026-05-05 22:30 | 47.35922 | 7.55091 | 28107 ft | 330 kts | 213° |
| 2026-05-05 22:31 | 47.33997 | 7.53296 | 27755 ft | 325 kts | 213° |
| 2026-05-05 22:31 | 47.32106 | 7.51534 | 27397 ft | 320 kts | 213° |
| 2026-05-05 22:31 | 47.30234 | 7.49791 | 27052 ft | 316 kts | 212° |
| 2026-05-05 22:31 | 47.28384 | 7.48070 | 26695 ft | 314 kts | 212° |
| 2026-05-05 22:32 | 47.26537 | 7.46355 | 26331 ft | 313 kts | 212° |
| 2026-05-05 22:32 | 47.24707 | 7.44661 | 25977 ft | 309 kts | 212° |
| 2026-05-05 22:32 | 47.22891 | 7.42982 | 25610 ft | 307 kts | 212° |
| 2026-05-05 22:32 | 47.21090 | 7.41314 | 25241 ft | 306 kts | 212° |
| 2026-05-05 22:33 | 47.19292 | 7.39647 | 24869 ft | 304 kts | 212° |
| 2026-05-05 22:33 | 47.17520 | 7.37954 | 24467 ft | 304 kts | 216° |
| 2026-05-05 22:33 | 47.15933 | 7.35911 | 24070 ft | 304 kts | 225° |
| 2026-05-05 22:33 | 47.14588 | 7.33525 | 23671 ft | 304 kts | 229° |
| 2026-05-05 22:34 | 47.13283 | 7.31093 | 23229 ft | 303 kts | 229° |
| 2026-05-05 22:34 | 47.11992 | 7.28712 | 22806 ft | 300 kts | 229° |
| 2026-05-05 22:34 | 47.10694 | 7.26331 | 22440 ft | 298 kts | 229° |
| 2026-05-05 22:34 | 47.09406 | 7.23974 | 22050 ft | 296 kts | 229° |
| 2026-05-05 22:35 | 47.08122 | 7.21623 | 21663 ft | 294 kts | 229° |
| 2026-05-05 22:35 | 47.06849 | 7.19287 | 21289 ft | 292 kts | 229° |
| 2026-05-05 22:35 | 47.05584 | 7.16967 | 20914 ft | 291 kts | 229° |
| 2026-05-05 22:35 | 47.04326 | 7.14657 | 20549 ft | 289 kts | 229° |
| 2026-05-05 22:36 | 47.03072 | 7.12353 | 20182 ft | 288 kts | 229° |
| 2026-05-05 22:36 | 47.01824 | 7.10061 | 19816 ft | 287 kts | 229° |
| 2026-05-05 22:36 | 47.00579 | 7.07780 | 19451 ft | 287 kts | 229° |
| 2026-05-05 22:36 | 46.99335 | 7.05506 | 19096 ft | 286 kts | 230° |
| 2026-05-05 22:37 | 46.98091 | 7.03232 | 18736 ft | 285 kts | 230° |
| 2026-05-05 22:37 | 46.96850 | 7.00969 | 18379 ft | 285 kts | 230° |
| 2026-05-05 22:37 | 46.95608 | 6.98704 | 17993 ft | 285 kts | 229° |
| 2026-05-05 22:37 | 46.94369 | 6.96448 | 17658 ft | 284 kts | 230° |
| 2026-05-05 22:38 | 46.93133 | 6.94199 | 17277 ft | 283 kts | 230° |
| 2026-05-05 22:38 | 46.91905 | 6.91960 | 16930 ft | 282 kts | 230° |
| 2026-05-05 22:38 | 46.90680 | 6.89728 | 16585 ft | 281 kts | 230° |
| 2026-05-05 22:38 | 46.89459 | 6.87509 | 16245 ft | 280 kts | 230° |
| 2026-05-05 22:39 | 46.88242 | 6.85301 | 15909 ft | 279 kts | 230° |
| 2026-05-05 22:39 | 46.87024 | 6.83093 | 15577 ft | 279 kts | 230° |
| 2026-05-05 22:39 | 46.85807 | 6.80888 | 15244 ft | 278 kts | 230° |
| 2026-05-05 22:39 | 46.84596 | 6.78697 | 14911 ft | 278 kts | 230° |
| 2026-05-05 22:40 | 46.83395 | 6.76525 | 14584 ft | 278 kts | 230° |
| 2026-05-05 22:40 | 46.82167 | 6.74309 | 14237 ft | 278 kts | 230° |
| 2026-05-05 22:40 | 46.80966 | 6.72144 | 13925 ft | 278 kts | 230° |
| 2026-05-05 22:40 | 46.79753 | 6.69953 | 13574 ft | 278 kts | 230° |
| 2026-05-05 22:41 | 46.78540 | 6.67762 | 13224 ft | 277 kts | 230° |
| 2026-05-05 22:41 | 46.77326 | 6.65579 | 12880 ft | 276 kts | 230° |
| 2026-05-05 22:41 | 46.76122 | 6.63415 | 12548 ft | 274 kts | 230° |
| 2026-05-05 22:41 | 46.74925 | 6.61263 | 12217 ft | 273 kts | 230° |
| 2026-05-05 22:42 | 46.73712 | 6.59140 | 11880 ft | 271 kts | 225° |
| 2026-05-05 22:42 | 46.72263 | 6.57418 | 11541 ft | 269 kts | 211° |
| 2026-05-05 22:42 | 46.70576 | 6.56266 | 11204 ft | 268 kts | 199° |
| 2026-05-05 22:42 | 46.68805 | 6.55415 | 10866 ft | 267 kts | 199° |
| 2026-05-05 22:43 | 46.67044 | 6.54567 | 10516 ft | 266 kts | 199° |
| 2026-05-05 22:43 | 46.65286 | 6.53715 | 10178 ft | 266 kts | 199° |
| 2026-05-05 22:43 | 46.63535 | 6.52867 | 9830 ft | 265 kts | 200° |
| 2026-05-05 22:43 | 46.61794 | 6.52028 | 9452 ft | 264 kts | 199° |
| 2026-05-05 22:44 | 46.60056 | 6.51190 | 9092 ft | 262 kts | 199° |
| 2026-05-05 22:44 | 46.58333 | 6.50358 | 8737 ft | 260 kts | 200° |
| 2026-05-05 22:44 | 46.56649 | 6.49540 | 8380 ft | 258 kts | 200° |
| 2026-05-05 22:44 | 46.54955 | 6.48716 | 8037 ft | 256 kts | 200° |
| 2026-05-05 22:45 | 46.53291 | 6.47909 | 7866 ft | 246 kts | 200° |
| 2026-05-05 22:45 | 46.51707 | 6.47145 | 7804 ft | 233 kts | 200° |
| 2026-05-05 22:45 | 46.50210 | 6.46425 | 7721 ft | 222 kts | 200° |
| 2026-05-05 22:45 | 46.48753 | 6.45725 | 7631 ft | 219 kts | 200° |
| 2026-05-05 22:46 | 46.47314 | 6.45026 | 7507 ft | 219 kts | 202° |
| 2026-05-05 22:46 | 46.46067 | 6.43825 | 7256 ft | 215 kts | 224° |
| 2026-05-05 22:46 | 46.45030 | 6.42279 | 6983 ft | 213 kts | 225° |
| 2026-05-05 22:46 | 46.44002 | 6.40735 | 6708 ft | 212 kts | 225° |
| 2026-05-05 22:47 | 46.42976 | 6.39207 | 6434 ft | 211 kts | 225° |
| 2026-05-05 22:47 | 46.41951 | 6.37685 | 6153 ft | 210 kts | 225° |
| 2026-05-05 22:47 | 46.40930 | 6.36172 | 5869 ft | 210 kts | 225° |
| 2026-05-05 22:47 | 46.39909 | 6.34657 | 5593 ft | 210 kts | 225° |
| 2026-05-05 22:48 | 46.38892 | 6.33150 | 5299 ft | 208 kts | 225° |
| 2026-05-05 22:48 | 46.37903 | 6.31686 | 5031 ft | 199 kts | 225° |
| 2026-05-05 22:48 | 46.36952 | 6.30278 | 4796 ft | 193 kts | 224° |
| 2026-05-05 22:48 | 46.36042 | 6.28932 | 4533 ft | 186 kts | 225° |
| 2026-05-05 22:49 | 46.35143 | 6.27602 | 4272 ft | 180 kts | 225° |
| 2026-05-05 22:49 | 46.34288 | 6.26339 | 4032 ft | 175 kts | 225° |
| 2026-05-05 22:49 | 46.33446 | 6.25095 | 3802 ft | 171 kts | 224° |
| 2026-05-05 22:49 | 46.32622 | 6.23879 | 3577 ft | 168 kts | 225° |
| 2026-05-05 22:50 | 46.31815 | 6.22689 | 3346 ft | 161 kts | 224° |
| 2026-05-05 22:50 | 46.31056 | 6.21568 | 3153 ft | 151 kts | 224° |
| 2026-05-05 22:50 | 46.30351 | 6.20528 | 2952 ft | 142 kts | 224° |
| 2026-05-05 22:50 | 46.29670 | 6.19525 | 2752 ft | 138 kts | 224° |
| 2026-05-05 22:51 | 46.28994 | 6.18529 | 2547 ft | 139 kts | 225° |
| 2026-05-05 22:51 | 46.28310 | 6.17522 | 2350 ft | 142 kts | 226° |
| 2026-05-05 22:51 | 46.27614 | 6.16497 | 2144 ft | 144 kts | 226° |
| 2026-05-05 22:51 | 46.26918 | 6.15446 | 1922 ft | 145 kts | 227° |
| 2026-05-05 22:52 | 46.26202 | 6.14416 | 1736 ft | 145 kts | 226° |
| 2026-05-05 22:52 | 46.25499 | 6.13383 | 1565 ft | 143 kts | 226° |
| 2026-05-05 22:52 | 46.24809 | 6.12361 | 1407 ft | 141 kts | 226° |
| 2026-05-05 22:52 | 46.24189 | 6.11457 | 1387 ft | 108 kts | 225° |
| 2026-05-05 22:53 | 46.23800 | 6.10886 | 1388 ft | 56 kts | 225° |
| 2026-05-05 22:53 | 46.23616 | 6.10736 | 1388 ft | 7 kts | 196° |
| 2026-05-05 22:53 | 46.23572 | 6.10718 | 1388 ft | 5 kts | 196° |
| 2026-05-05 22:53 | 46.23547 | 6.10707 | 1389 ft | 2 kts | 196° |
| 2026-05-05 22:54 | 46.23538 | 6.10704 | 1389 ft | 3 kts | 195° |
| 2026-05-05 22:54 | 46.23492 | 6.10685 | 1387 ft | 11 kts | 195° |
| 2026-05-05 22:54 | 46.23427 | 6.10692 | 1387 ft | 7 kts | 147° |
| 2026-05-05 22:54 | 46.23395 | 6.10734 | 1388 ft | 6 kts | 136° |
| 2026-05-05 22:55 | 46.23360 | 6.10784 | 1388 ft | 6 kts | 135° |
| 2026-05-05 22:55 | 46.23351 | 6.10831 | 1389 ft | 4 kts | 80° |
| 2026-05-05 22:55 | 46.23383 | 6.10884 | 1385 ft | 10 kts | 45° |
| 2026-05-05 22:55 | 46.23421 | 6.10940 | 1389 ft | 0 kts | 45° |
| 2026-05-05 22:56 | 46.23435 | 6.10960 | 1387 ft | 8 kts | 45° |
| 2026-05-05 22:56 | 46.23475 | 6.11044 | 1386 ft | 9 kts | 101° |
| 2026-05-05 22:56 | 46.23440 | 6.11104 | 1390 ft | 6 kts | 136° |
| 2026-05-05 22:57 | 46.23424 | 6.11127 | 1387 ft | 0 kts | 136° |